Time;durP1;ratioP1;P1;durP2;ratioP2;P2;SDS_P1;SDS_P2;PMS_P1;PMS_P2;Temp;Humidity;BMP_temperature;BMP_pressure;BME280_temperature;BME280_humidity;BME280_pressure;Samples;Min_cycle;Max_cycle;Signal;HPM_P1;HPM_P2
2022/10/01 05:02:50;;;;;;;8.70;4.35;;;8.80;99.90;;;;;;6169542;23;20105;-77
2022/10/01 05:05:19;;;;;;;5.68;4.25;;;8.90;99.90;;;;;;6198336;23;20001;-78
2022/10/01 05:07:46;;;;;;;6.43;4.40;;;8.90;99.90;;;;;;6173650;23;20072;-78
2022/10/01 05:10:16;;;;;;;6.47;4.05;;;8.90;99.90;;;;;;6174784;23;20012;-80
2022/10/01 05:12:43;;;;;;;6.82;4.40;;;8.90;99.90;;;;;;6198848;23;20000;-79
2022/10/01 05:15:09;;;;;;;5.82;3.47;;;9.00;99.90;;;;;;6225832;23;20309;-77
2022/10/01 05:17:35;;;;;;;5.22;3.33;;;9.00;99.90;;;;;;6224825;23;20046;-78
2022/10/01 05:20:02;;;;;;;4.38;3.03;;;9.10;99.90;;;;;;6224975;23;20294;-78
2022/10/01 05:22:27;;;;;;;3.28;1.88;;;9.20;99.90;;;;;;6223953;23;20015;-77
2022/10/01 05:24:53;;;;;;;4.75;2.63;;;9.30;99.90;;;;;;6224450;23;20235;-77
2022/10/01 05:27:19;;;;;;;3.17;2.00;;;9.40;99.90;;;;;;6224405;23;19988;-78
2022/10/01 05:29:45;;;;;;;4.32;2.72;;;9.50;99.90;;;;;;6224217;23;20001;-78
2022/10/01 05:32:12;;;;;;;3.95;2.50;;;9.60;99.90;;;;;;6197962;23;19995;-78
2022/10/01 05:34:38;;;;;;;4.30;2.80;;;9.70;99.90;;;;;;6223933;23;20024;-77
2022/10/01 05:37:04;;;;;;;6.43;2.80;;;9.60;99.90;;;;;;6225089;23;20005;-77
2022/10/01 05:39:31;;;;;;;5.80;2.20;;;9.60;99.90;;;;;;6224953;23;20011;-79
2022/10/01 05:41:57;;;;;;;5.10;2.53;;;9.60;99.90;;;;;;6198113;23;20016;-78
2022/10/01 05:44:24;;;;;;;5.60;2.80;;;9.60;99.90;;;;;;6224824;23;20043;-77
2022/10/01 05:46:51;;;;;;;3.92;2.58;;;9.60;99.90;;;;;;6225636;23;20356;-79
2022/10/01 05:49:17;;;;;;;4.05;1.90;;;9.60;99.90;;;;;;6226523;23;20339;-78
2022/10/01 05:51:46;;;;;;;3.55;2.13;;;9.70;99.90;;;;;;6227120;23;20084;-78
2022/10/01 05:54:12;;;;;;;7.45;5.57;;;9.70;99.90;;;;;;6226568;23;20107;-78
2022/10/01 05:56:38;;;;;;;17.83;13.07;;;9.70;99.90;;;;;;6200883;23;20187;-78
2022/10/01 05:59:04;;;;;;;4.97;3.55;;;9.70;99.90;;;;;;6224872;23;20000;-79
2022/10/01 06:01:33;;;;;;;5.20;2.58;;;9.80;99.90;;;;;;6198885;23;20008;-81
2022/10/01 06:03:59;;;;;;;3.67;2.40;;;9.80;99.90;;;;;;6223419;23;20004;-80
2022/10/01 06:06:26;;;;;;;3.58;2.20;;;9.80;99.90;;;;;;6224073;23;20027;-82
2022/10/01 06:08:52;;;;;;;3.97;2.45;;;9.80;99.90;;;;;;6198058;23;20008;-81
2022/10/01 06:11:27;;;;;;;4.40;1.95;;;9.90;99.90;;;;;;6224648;23;20000;-81
2022/10/01 06:14:02;;;;;;;3.38;2.13;;;9.90;99.90;;;;;;6198713;23;20004;-79
2022/10/01 06:16:28;;;;;;;4.07;2.03;;;9.90;99.90;;;;;;6224003;23;20028;-82
2022/10/01 06:19:18;;;;;;;4.22;2.50;;;9.90;99.90;;;;;;6197464;23;20015;-82
2022/10/01 06:21:47;;;;;;;3.40;2.03;;;9.90;99.90;;;;;;6224133;23;20046;-81
2022/10/01 06:24:16;;;;;;;4.65;2.22;;;9.90;99.90;;;;;;6225219;23;20057;-84
2022/10/01 06:26:48;;;;;;;5.05;2.38;;;9.80;99.90;;;;;;6228180;23;20349;-82
2022/10/01 06:29:13;;;;;;;5.72;3.20;;;9.80;99.90;;;;;;6138798;23;20005;-83
2022/10/01 06:32:18;;;;;;;6.13;3.15;;;9.80;99.90;;;;;;6138885;23;20009;-82
2022/10/01 06:34:47;;;;;;;5.97;3.13;;;9.80;99.90;;;;;;6114895;23;20063;-82
2022/10/01 06:37:19;;;;;;;6.22;3.58;;;9.70;99.90;;;;;;6165415;23;20005;-83
2022/10/01 06:39:45;;;;;;;5.63;3.00;;;9.80;99.90;;;;;;6162223;23;20013;-78
2022/10/01 06:42:11;;;;;;;5.22;2.70;;;9.70;99.90;;;;;;6162119;23;20314;-78
2022/10/01 06:44:36;;;;;;;6.50;2.50;;;9.70;99.90;;;;;;6161910;23;20005;-78
2022/10/01 06:47:02;;;;;;;4.72;2.78;;;9.80;99.90;;;;;;6161799;23;20005;-78
2022/10/01 06:49:28;;;;;;;4.75;2.50;;;9.80;99.90;;;;;;6160770;23;20318;-78
2022/10/01 06:54:39;;;;;;;5.40;2.70;;;9.80;99.90;;;;;;6161156;23;20006;-78
2022/10/01 06:57:05;;;;;;;3.90;2.75;;;9.90;99.90;;;;;;6161586;23;20041;-78
2022/10/01 06:59:30;;;;;;;5.90;2.40;;;9.90;99.90;;;;;;6174821;23;20290;-77
2022/10/01 07:01:56;;;;;;;3.88;2.30;;;9.90;99.90;;;;;;6228788;23;20074;-80
2022/10/01 07:04:22;;;;;;;5.72;2.55;;;10.00;99.90;;;;;;6253874;23;20007;-82
2022/10/01 07:06:47;;;;;;;5.20;2.65;;;10.00;99.90;;;;;;6253996;23;20000;-80
2022/10/01 07:09:13;;;;;;;3.75;2.53;;;10.10;99.90;;;;;;6254481;23;20022;-84
2022/10/01 07:11:40;;;;;;;5.68;2.30;;;10.10;99.90;;;;;;6226947;23;20320;-79
2022/10/01 07:14:07;;;;;;;4.25;2.63;;;10.10;99.90;;;;;;6254937;23;20062;-78
2022/10/01 07:16:33;;;;;;;7.93;3.10;;;10.20;99.90;;;;;;6226919;23;20008;-80
2022/10/01 07:18:59;;;;;;;3.97;2.67;;;10.20;99.90;;;;;;6255119;23;20070;-80
2022/10/01 07:21:25;;;;;;;6.55;2.70;;;10.20;99.90;;;;;;6227952;23;19992;-78
2022/10/01 07:23:51;;;;;;;4.70;2.50;;;10.20;99.90;;;;;;6203153;23;20335;-79
2022/10/01 07:26:16;;;;;;;4.80;2.60;;;10.20;99.90;;;;;;6254850;23;20016;-79
2022/10/01 07:28:43;;;;;;;5.05;2.45;;;10.20;99.90;;;;;;6253977;23;20027;-78
2022/10/01 07:31:10;;;;;;;4.63;2.60;;;10.30;99.90;;;;;;6253521;23;20008;-77
2022/10/01 07:33:40;;;;;;;4.40;2.30;;;10.30;99.90;;;;;;6254547;23;19992;-77
2022/10/01 07:36:10;;;;;;;4.68;2.10;;;10.30;99.90;;;;;;6228056;23;20000;-79
2022/10/01 07:38:36;;;;;;;5.22;1.65;;;10.30;99.90;;;;;;6255529;23;20050;-80
2022/10/01 07:41:04;;;;;;;4.60;1.88;;;10.40;99.90;;;;;;6235736;23;20016;-81
2022/10/01 07:43:31;;;;;;;3.17;1.92;;;10.40;99.90;;;;;;6265497;23;20003;-78
2022/10/01 07:45:58;;;;;;;4.18;1.50;;;10.40;99.90;;;;;;6261188;23;20011;-81
2022/10/01 07:48:26;;;;;;;4.35;1.75;;;10.40;99.90;;;;;;6237619;23;20012;-76
2022/10/01 07:50:52;;;;;;;3.53;2.05;;;10.50;99.90;;;;;;6266076;23;20170;-77
2022/10/01 07:53:18;;;;;;;3.70;2.30;;;10.50;99.90;;;;;;6259153;23;20050;-78
2022/10/01 07:55:44;;;;;;;3.88;2.17;;;10.50;99.90;;;;;;6252943;23;20004;-78
2022/10/01 07:58:14;;;;;;;2.90;1.90;;;10.50;99.90;;;;;;6228945;23;20061;-79
2022/10/01 08:00:39;;;;;;;4.13;2.33;;;10.50;99.90;;;;;;6227708;23;20015;-80
2022/10/01 08:03:05;;;;;;;3.38;2.13;;;10.50;99.90;;;;;;6253988;23;20044;-79
2022/10/01 08:05:34;;;;;;;3.58;2.35;;;10.50;99.90;;;;;;6227337;23;20000;-79
2022/10/01 08:08:05;;;;;;;3.63;1.98;;;10.60;99.90;;;;;;6254571;23;20004;-82
2022/10/01 08:10:35;;;;;;;4.43;2.15;;;10.70;99.90;;;;;;6252247;23;20001;-80
2022/10/01 08:13:07;;;;;;;4.70;2.22;;;10.70;99.90;;;;;;6254424;23;20000;-81
2022/10/01 08:15:34;;;;;;;5.28;2.80;;;10.70;99.90;;;;;;6202250;23;20000;-80
2022/10/01 08:18:09;;;;;;;4.53;2.25;;;10.80;99.90;;;;;;6253334;23;20300;-82
2022/10/01 08:20:35;;;;;;;2.88;1.65;;;10.80;99.90;;;;;;6227162;23;20198;-78
2022/10/01 08:23:07;;;;;;;2.75;1.50;;;10.90;99.90;;;;;;6253984;23;20000;-82
2022/10/01 08:25:33;;;;;;;3.15;1.77;;;10.90;99.90;;;;;;6252838;23;20308;-82
2022/10/01 08:27:59;;;;;;;4.72;1.75;;;11.00;99.90;;;;;;6253069;23;19996;-83
2022/10/01 08:30:26;;;;;;;4.32;1.60;;;11.10;99.90;;;;;;6254630;23;20000;-83
2022/10/01 08:33:00;;;;;;;5.10;2.05;;;11.10;99.90;;;;;;6202609;23;20008;-83
2022/10/01 08:35:27;;;;;;;4.72;2.40;;;11.20;99.90;;;;;;6227561;23;20050;-80
2022/10/01 08:38:05;;;;;;;2.63;1.67;;;11.30;99.90;;;;;;6228416;23;20011;-82
2022/10/01 08:41:11;;;;;;;3.20;1.17;;;11.30;99.90;;;;;;6255004;23;20086;-83
2022/10/01 08:43:43;;;;;;;3.50;1.42;;;11.30;99.90;;;;;;6227118;23;20004;-81
2022/10/01 09:10:24;;;;;;;3.92;1.13;;;11.70;99.90;;;;;;6044880;23;20062;-80
2022/10/01 09:13:22;;;;;;;2.83;1.30;;;11.80;99.90;;;;;;6044331;23;20003;-81
2022/10/01 09:16:08;;;;;;;2.08;1.08;;;11.80;99.90;;;;;;5997668;23;20008;-85
2022/10/01 09:18:43;;;;;;;2.15;0.90;;;11.90;99.90;;;;;;6044514;23;20059;-80
2022/10/01 09:21:46;;;;;;;1.73;0.95;;;12.00;99.90;;;;;;6021041;23;20062;-78
2022/10/01 09:24:41;;;;;;;2.67;1.23;;;12.10;99.90;;;;;;6020280;23;20003;-80
2022/10/01 09:27:43;;;;;;;3.20;1.45;;;12.20;99.90;;;;;;6036454;23;20288;-82
2022/10/01 09:30:25;;;;;;;3.35;1.30;;;12.20;99.90;;;;;;6026097;23;20021;-81
2022/10/01 09:32:57;;;;;;;2.53;1.15;;;12.30;99.90;;;;;;6072987;23;20006;-80
2022/10/01 09:35:53;;;;;;;2.60;1.30;;;12.20;99.90;;;;;;6073113;23;20006;-81
2022/10/01 09:38:54;;;;;;;2.97;1.10;;;12.20;99.90;;;;;;6041727;23;20388;-81
2022/10/01 09:41:25;;;;;;;2.80;1.00;;;12.00;99.90;;;;;;6145888;23;20016;-81
2022/10/01 09:43:55;;;;;;;2.90;1.10;;;12.00;99.90;;;;;;6170441;23;20012;-84
2022/10/01 09:46:34;;;;;;;2.78;1.23;;;12.00;99.90;;;;;;6195050;23;19992;-84
2022/10/01 09:49:19;;;;;;;2.70;1.48;;;12.00;99.90;;;;;;6221048;23;20010;-83
2022/10/01 09:51:48;;;;;;;3.20;1.27;;;12.10;99.90;;;;;;6195018;23;20008;-82
2022/10/01 09:54:31;;;;;;;2.60;1.00;;;12.10;99.90;;;;;;6195697;23;20004;-83
2022/10/01 09:57:44;;;;;;;2.30;1.13;;;12.10;99.90;;;;;;6220983;23;20005;-81
2022/10/01 10:00:36;;;;;;;2.60;0.90;;;12.20;99.90;;;;;;6106993;23;20010;-83
2022/10/01 10:03:38;;;;;;;2.92;1.08;;;12.30;99.90;;;;;;6220975;23;20031;-81
2022/10/01 10:06:27;;;;;;;1.95;0.57;;;12.20;99.90;;;;;;6195901;23;20024;-80
2022/10/01 10:09:00;;;;;;;2.03;0.73;;;12.30;99.90;;;;;;6194903;23;20032;-82
2022/10/01 10:11:33;;;;;;;2.47;0.70;;;12.30;99.90;;;;;;6195293;23;20008;-81
2022/10/01 10:14:03;;;;;;;2.80;0.90;;;12.30;99.90;;;;;;6195649;23;20005;-80
2022/10/01 10:16:34;;;;;;;2.10;0.70;;;12.30;99.90;;;;;;6220995;23;20016;-81
2022/10/01 10:19:36;;;;;;;1.45;0.57;;;12.40;99.90;;;;;;6246896;23;20036;-80
2022/10/01 10:22:28;;;;;;;1.83;0.70;;;12.40;99.90;;;;;;6249700;23;20011;-79
2022/10/01 10:25:19;;;;;;;2.25;0.50;;;12.40;99.90;;;;;;6276335;22;20008;-83
2022/10/01 10:28:16;;;;;;;0.95;0.40;;;12.50;99.90;;;;;;6277176;22;20004;-83
2022/10/01 10:30:51;;;;;;;1.27;0.32;;;12.50;99.90;;;;;;6279889;22;20028;-83
2022/10/01 10:33:20;;;;;;;2.50;0.50;;;12.60;99.90;;;;;;6251532;23;20071;-82
2022/10/01 10:36:04;;;;;;;1.58;0.55;;;12.60;99.90;;;;;;6252638;22;20007;-81
2022/10/01 10:38:38;;;;;;;1.35;0.50;;;12.60;99.90;;;;;;6277770;22;20008;-82
2022/10/01 10:41:15;;;;;;;1.13;0.43;;;12.70;99.90;;;;;;6253069;22;20287;-82
2022/10/01 10:43:42;;;;;;;1.10;0.40;;;12.70;99.90;;;;;;6252787;22;20338;-80
2022/10/01 10:46:09;;;;;;;1.00;0.40;;;12.70;99.90;;;;;;6253223;22;19996;-81
2022/10/01 10:48:42;;;;;;;1.75;0.47;;;12.80;99.90;;;;;;6252885;22;20023;-81
2022/10/01 10:51:11;;;;;;;1.10;0.30;;;12.90;99.90;;;;;;6276839;22;20046;-80
2022/10/01 10:53:42;;;;;;;1.10;0.50;;;13.00;99.90;;;;;;6277111;22;20027;-83
2022/10/01 10:56:21;;;;;;;1.00;0.30;;;13.20;99.90;;;;;;6253500;23;20048;-78
2022/10/01 10:59:05;;;;;;;0.90;0.30;;;13.30;99.90;;;;;;6252870;23;20012;-83
2022/10/01 11:01:54;;;;;;;1.10;0.35;;;13.30;99.90;;;;;;6252190;23;20008;-83
2022/10/01 11:04:35;;;;;;;1.45;0.47;;;13.30;99.90;;;;;;6275631;22;20031;-81
2022/10/01 11:07:18;;;;;;;1.90;0.30;;;13.50;99.90;;;;;;6251628;23;20000;-85
2022/10/01 11:10:35;;;;;;;2.20;0.63;;;13.70;99.90;;;;;;6253446;22;20000;-76
2022/10/01 11:13:33;;;;;;;0.95;0.32;;;14.00;99.90;;;;;;6252720;23;20035;-80
2022/10/01 11:16:23;;;;;;;0.30;0.10;;;14.30;99.90;;;;;;6254038;22;19996;-79
2022/10/01 11:18:55;;;;;;;0.45;0.15;;;14.40;99.90;;;;;;6226719;23;20226;-79
2022/10/01 11:21:33;;;;;;;0.75;0.20;;;14.40;99.90;;;;;;6253605;22;20008;-80
2022/10/01 11:24:21;;;;;;;0.57;0.20;;;14.30;99.90;;;;;;6227075;23;20004;-79
2022/10/01 11:27:05;;;;;;;0.85;0.40;;;14.20;99.90;;;;;;6253941;22;20090;-79
2022/10/01 11:29:57;;;;;;;1.52;0.30;;;14.00;99.90;;;;;;6253757;22;20000;-80
2022/10/01 11:32:52;;;;;;;0.90;0.20;;;14.10;99.90;;;;;;6252048;23;20246;-80
2022/10/01 11:35:49;;;;;;;1.55;0.30;;;14.10;99.90;;;;;;6208997;23;20281;-83
2022/10/01 11:38:50;;;;;;;1.27;0.30;;;14.20;99.90;;;;;;6251581;22;20011;-79
2022/10/01 11:41:19;;;;;;;0.40;0.20;;;14.20;99.90;;;;;;6251144;23;20012;-78
2022/10/01 11:43:58;;;;;;;0.85;0.20;;;14.20;99.90;;;;;;6253033;23;20291;-82
2022/10/01 11:46:49;;;;;;;0.82;0.30;;;14.20;99.90;;;;;;6277923;22;20059;-78
2022/10/01 11:49:41;;;;;;;0.70;0.20;;;14.10;99.90;;;;;;6228210;23;20004;-80
2022/10/01 11:52:33;;;;;;;1.35;0.50;;;14.10;99.90;;;;;;6256351;23;20008;-82
2022/10/01 11:59:20;;;;;;;1.20;0.30;;;14.10;99.90;;;;;;6262412;23;20003;-78
2022/10/01 12:01:49;;;;;;;1.00;0.57;;;14.00;99.90;;;;;;6259890;23;20004;-80
2022/10/01 12:04:57;;;;;;;0.77;0.20;;;14.00;99.90;;;;;;6289566;22;19999;-81
2022/10/01 12:08:08;;;;;;;2.17;0.40;;;13.90;99.90;;;;;;6238120;22;20310;-81
2022/10/01 12:11:00;;;;;;;0.80;0.30;;;13.90;99.90;;;;;;6239092;23;20060;-85
2022/10/01 12:13:54;;;;;;;1.10;0.20;;;13.90;99.90;;;;;;6240721;22;20012;-79
2022/10/01 12:16:31;;;;;;;1.10;0.38;;;13.90;99.90;;;;;;6231641;23;20031;-83
2022/10/01 12:19:36;;;;;;;1.02;0.20;;;13.90;99.90;;;;;;6230119;23;20012;-83
2022/10/01 12:22:48;;;;;;;0.90;0.25;;;13.80;99.90;;;;;;6230113;23;20004;-79
2022/10/01 12:25:14;;;;;;;1.33;0.20;;;13.90;99.90;;;;;;6167839;23;20021;-81
2022/10/01 12:28:21;;;;;;;1.00;0.40;;;14.10;99.90;;;;;;6168255;23;20100;-79
2022/10/01 12:31:03;;;;;;;0.80;0.30;;;14.30;99.90;;;;;;6188466;23;20063;-82
2022/10/01 12:33:50;;;;;;;0.90;0.30;;;14.40;99.90;;;;;;6168555;23;20009;-79
2022/10/01 12:36:41;;;;;;;1.30;0.22;;;14.40;99.90;;;;;;6167543;23;20004;-80
2022/10/01 12:39:24;;;;;;;1.88;0.30;;;14.30;99.90;;;;;;6186004;23;20016;-81
2022/10/01 12:42:15;;;;;;;0.60;0.20;;;14.50;99.90;;;;;;6167205;23;20009;-79
2022/10/01 12:44:55;;;;;;;0.55;0.20;;;14.50;99.90;;;;;;6143209;23;20253;-79
2022/10/01 12:47:55;;;;;;;1.10;0.30;;;14.50;99.90;;;;;;6194641;23;20174;-80
2022/10/01 12:50:38;;;;;;;0.55;0.22;;;14.60;99.90;;;;;;6167644;23;20005;-82
2022/10/01 12:53:40;;;;;;;1.10;0.35;;;14.60;99.90;;;;;;6192696;23;20005;-78
2022/10/01 12:56:36;;;;;;;0.90;0.28;;;14.80;99.90;;;;;;6167591;23;20005;-79
2022/10/01 12:59:20;;;;;;;1.60;0.30;;;14.80;99.90;;;;;;6167328;23;20087;-78
2022/10/01 13:02:06;;;;;;;0.98;0.30;;;14.80;99.90;;;;;;6196235;22;20190;-81
2022/10/01 13:05:01;;;;;;;0.65;0.20;;;14.70;99.90;;;;;;6251364;22;20080;-78
2022/10/01 13:08:03;;;;;;;1.02;0.30;;;14.70;99.90;;;;;;6284023;22;20031;-80
2022/10/01 13:11:02;;;;;;;1.08;0.30;;;14.80;99.90;;;;;;6252293;22;20022;-80
2022/10/01 13:13:48;;;;;;;0.57;0.20;;;14.90;99.90;;;;;;6258408;22;20008;-83
2022/10/01 13:16:40;;;;;;;1.13;0.30;;;15.00;99.90;;;;;;6258826;22;20003;-80
2022/10/01 13:19:33;;;;;;;3.08;0.40;;;15.30;99.90;;;;;;6284196;22;20000;-78
2022/10/01 13:22:40;;;;;;;1.05;0.30;;;15.60;99.90;;;;;;6258215;22;20070;-79
2022/10/01 13:25:21;;;;;;;0.88;0.30;;;16.10;99.90;;;;;;6259996;22;20003;-81
2022/10/01 13:28:51;;;;;;;1.23;0.20;;;16.40;99.90;;;;;;6262792;22;20008;-80
2022/10/01 13:31:26;;;;;;;1.13;0.28;;;16.50;99.90;;;;;;6132397;23;20010;-79
2022/10/01 13:34:22;;;;;;;2.05;0.55;;;16.70;99.90;;;;;;6131767;23;20057;-80
2022/10/01 13:37:12;;;;;;;0.95;0.30;;;16.70;99.90;;;;;;6107733;23;20010;-82
2022/10/01 13:39:45;;;;;;;1.30;0.30;;;16.60;99.90;;;;;;6132929;23;20077;-80
2022/10/01 13:42:26;;;;;;;0.88;0.25;;;16.60;99.90;;;;;;6132825;23;20014;-82
2022/10/01 13:45:50;;;;;;;0.90;0.20;;;17.00;99.90;;;;;;6114236;23;20017;-82
2022/10/01 13:51:58;;;;;;;1.58;0.40;;;17.50;99.90;;;;;;6045122;23;20098;-82
2022/10/01 13:55:02;;;;;;;0.73;0.25;;;17.20;99.90;;;;;;6045080;23;20210;-83
2022/10/01 13:57:49;;;;;;;0.70;0.20;;;17.30;99.90;;;;;;6002475;23;20051;-80
2022/10/01 14:00:20;;;;;;;1.52;0.45;;;17.00;99.90;;;;;;6045797;23;20201;-81
2022/10/01 14:03:27;;;;;;;1.73;0.30;;;16.90;99.90;;;;;;6045125;23;20007;-80
2022/10/01 14:06:12;;;;;;;;;;;16.80;99.90;;;;;;6045506;23;20286;-82
2022/10/01 14:09:32;;;;;;;2.40;0.30;;;17.00;99.90;;;;;;6131374;23;19909;-82
2022/10/01 14:16:07;;;;;;;0.85;0.22;;;17.50;99.90;;;;;;6167786;23;20077;-78
2022/10/01 14:19:10;;;;;;;1.48;0.20;;;17.50;99.90;;;;;;6169372;23;20032;-80
2022/10/01 14:21:58;;;;;;;1.90;0.30;;;17.40;99.90;;;;;;6072219;23;20011;-79
2022/10/01 14:28:38;;;;;;;1.55;0.20;;;17.10;99.90;;;;;;5937274;24;20008;-82
2022/10/01 14:31:46;;;;;;;1.10;0.40;;;17.00;99.90;;;;;;5954339;24;20004;-78
2022/10/01 14:34:55;;;;;;;1.58;0.20;;;16.90;99.90;;;;;;5990954;24;20040;-79
2022/10/01 14:37:38;;;;;;;2.15;0.40;;;17.10;99.90;;;;;;5991629;23;20004;-80
2022/10/01 14:41:05;;;;;;;2.25;0.20;;;16.90;99.90;;;;;;5966808;24;20064;-77
2022/10/01 14:46:55;;;;;;;1.35;0.30;;;16.70;99.90;;;;;;5908516;24;20010;-81
2022/10/01 14:50:07;;;;;;;1.58;0.30;;;16.70;99.90;;;;;;5907447;24;20010;-81
2022/10/01 14:53:44;;;;;;;0.88;0.20;;;16.80;99.90;;;;;;5892640;24;20028;-80
2022/10/01 15:03:57;;;;;;;0.95;0.30;;;16.80;99.90;;;;;;5935249;24;20060;-79
2022/10/01 15:11:04;;;;;;;1.52;0.60;;;16.70;99.90;;;;;;5935297;24;20032;-78
2022/10/01 15:14:14;;;;;;;1.10;0.30;;;16.70;99.90;;;;;;5873354;24;20082;-83
2022/10/01 15:20:03;;;;;;;1.58;0.30;;;16.60;99.90;;;;;;5909536;24;20014;-78
2022/10/01 15:23:05;;;;;;;1.05;0.30;;;16.60;99.90;;;;;;5914904;24;20033;-82
2022/10/01 15:26:15;;;;;;;2.03;0.40;;;16.60;99.90;;;;;;5873464;24;20048;-80
2022/10/01 15:29:19;;;;;;;1.75;0.40;;;16.60;99.90;;;;;;5965479;24;20016;-78
2022/10/01 15:31:58;;;;;;;1.60;0.50;;;16.60;99.90;;;;;;5945370;24;20012;-81
2022/10/01 15:38:46;;;;;;;1.48;0.40;;;16.50;99.90;;;;;;5916965;24;20106;-79
2022/10/01 15:42:32;;;;;;;1.30;0.40;;;16.70;99.90;;;;;;5946832;24;20038;-79
2022/10/01 15:45:29;;;;;;;1.90;0.50;;;16.70;99.90;;;;;;6035426;23;20007;-79
2022/10/01 16:03:32;;;;;;;1.27;0.40;;;16.00;99.90;;;;;;5965475;24;20016;-79
2022/10/01 16:10:49;;;;;;;1.55;0.43;;;15.90;99.90;;;;;;5853250;24;20030;-79
2022/10/01 16:14:30;;;;;;;2.80;0.50;;;15.90;99.90;;;;;;5855973;24;20095;-80
2022/10/01 16:18:13;;;;;;;1.38;0.60;;;15.80;99.90;;;;;;5856387;24;20021;-79
2022/10/01 16:21:26;;;;;;;1.80;0.65;;;15.70;99.90;;;;;;5883134;24;20330;-81
2022/10/01 16:28:20;;;;;;;1.08;0.38;;;15.70;99.90;;;;;;5909559;24;20385;-80
2022/10/01 16:35:22;;;;;;;3.38;0.60;;;15.50;99.90;;;;;;5975444;24;20115;-78
2022/10/01 16:38:25;;;;;;;1.98;0.70;;;15.50;99.90;;;;;;5962859;24;20020;-79
2022/10/01 16:42:11;;;;;;;1.90;0.73;;;15.40;99.90;;;;;;5993038;24;20380;-78
2022/10/01 16:56:13;;;;;;;;;;;;;;;;;;;;;
2022/10/01 16:59:31;;;;;;;1.50;0.60;;;15.10;99.90;;;;;;6155162;23;20036;-81
2022/10/01 17:02:16;;;;;;;2.65;0.70;;;15.10;99.90;;;;;;6165201;23;20248;-80
2022/10/01 17:05:16;;;;;;;2.90;0.68;;;15.00;99.90;;;;;;6166254;23;20144;-82
2022/10/01 17:08:00;;;;;;;1.88;0.60;;;15.00;99.90;;;;;;6165222;23;20282;-80
2022/10/01 17:11:12;;;;;;;3.17;1.05;;;15.00;99.90;;;;;;6164247;23;20043;-79
2022/10/01 17:17:06;;;;;;;2.72;0.80;;;15.10;99.90;;;;;;6225415;23;20047;-82
2022/10/01 17:20:39;;;;;;;1.45;0.50;;;15.10;99.90;;;;;;6173814;23;20012;-78
2022/10/01 17:23:05;;;;;;;2.33;0.60;;;15.10;99.90;;;;;;6135677;23;20025;-76
2022/10/01 17:26:18;;;;;;;2.75;0.70;;;15.00;99.90;;;;;;6136536;23;19998;-81
2022/10/01 17:33:32;;;;;;;1.65;0.68;;;14.90;99.90;;;;;;6001948;23;20026;-77
2022/10/01 17:39:21;;;;;;;3.80;0.80;;;14.80;99.90;;;;;;6020734;23;20012;-78
2022/10/01 17:42:33;;;;;;;2.17;0.75;;;14.90;99.90;;;;;;5997741;23;20026;-80
2022/10/01 17:45:23;;;;;;;2.95;0.77;;;14.90;99.90;;;;;;5955916;23;20190;-83
2022/10/01 17:48:40;;;;;;;2.05;0.70;;;14.90;99.90;;;;;;6027458;23;20030;-82
2022/10/01 17:55:39;;;;;;;2.80;0.85;;;14.70;99.90;;;;;;6051087;23;20052;-80
2022/10/01 17:58:15;;;;;;;4.32;0.90;;;14.60;99.90;;;;;;6137625;23;20013;-79
2022/10/01 18:00:43;;;;;;;2.90;0.85;;;14.70;99.90;;;;;;6080219;23;20006;-78
2022/10/01 18:03:39;;;;;;;3.53;1.15;;;14.60;99.90;;;;;;6080738;23;20091;-79
2022/10/01 18:06:35;;;;;;;2.25;0.65;;;14.50;99.90;;;;;;6089053;23;20008;-83
2022/10/01 18:09:20;;;;;;;1.40;0.57;;;14.50;99.90;;;;;;6091055;23;20028;-79
2022/10/01 18:11:47;;;;;;;3.97;1.33;;;14.50;99.90;;;;;;6113020;23;20006;-78
2022/10/01 18:14:15;;;;;;;2.80;0.90;;;14.50;99.90;;;;;;6083102;23;20014;-79
2022/10/01 18:17:08;;;;;;;2.90;0.60;;;14.50;99.90;;;;;;6083659;23;20034;-79
2022/10/01 18:19:35;;;;;;;2.20;0.63;;;14.50;99.90;;;;;;6084280;23;20010;-79
2022/10/01 18:22:57;;;;;;;2.35;0.80;;;14.50;99.90;;;;;;6107830;23;20025;-79
2022/10/01 18:25:24;;;;;;;3.20;0.90;;;14.50;99.90;;;;;;6083149;23;20046;-81
2022/10/01 18:28:11;;;;;;;3.13;0.93;;;14.50;99.90;;;;;;6123316;23;20179;-78
2022/10/01 18:30:45;;;;;;;4.95;0.90;;;14.50;99.90;;;;;;6100247;23;20029;-80
2022/10/01 18:33:12;;;;;;;2.15;0.80;;;14.40;99.90;;;;;;6224392;23;20134;-78
2022/10/01 18:35:42;;;;;;;3.15;0.70;;;14.40;99.90;;;;;;6199395;23;20051;-80
2022/10/01 18:38:48;;;;;;;4.65;0.90;;;14.40;99.90;;;;;;6223798;23;20226;-78
2022/10/01 18:41:28;;;;;;;2.80;0.63;;;14.40;99.90;;;;;;6198519;23;20119;-80
2022/10/01 18:43:57;;;;;;;5.03;1.27;;;14.40;99.90;;;;;;6198171;23;20004;-80
2022/10/01 18:46:54;;;;;;;3.15;0.95;;;14.40;99.90;;;;;;6260666;22;20282;-78
2022/10/01 18:49:34;;;;;;;3.80;1.52;;;14.30;99.90;;;;;;6286366;22;20019;-76
2022/10/01 18:52:17;;;;;;;2.75;1.10;;;14.10;99.90;;;;;;6259633;22;20003;-79
2022/10/01 18:55:20;;;;;;;3.15;1.63;;;14.00;99.90;;;;;;6254373;23;20008;-78
2022/10/01 18:58:25;;;;;;;3.40;1.40;;;13.80;99.90;;;;;;6228903;23;20336;-75
2022/10/01 19:01:07;;;;;;;4.10;1.00;;;13.70;99.90;;;;;;6252589;23;20008;-77
2022/10/01 19:04:04;;;;;;;3.67;1.25;;;13.60;99.90;;;;;;6254301;23;20004;-77
2022/10/01 19:07:02;;;;;;;4.03;1.02;;;13.50;99.90;;;;;;6194051;23;20071;-78
2022/10/01 19:09:36;;;;;;;5.55;1.52;;;13.50;99.90;;;;;;6195030;23;20053;-77
2022/10/01 19:12:45;;;;;;;5.07;1.30;;;13.40;99.90;;;;;;6193687;23;20092;-76
2022/10/01 19:15:46;;;;;;;3.53;1.00;;;13.50;99.90;;;;;;6104987;23;20017;-77
2022/10/01 19:19:01;;;;;;;2.78;1.10;;;13.50;99.90;;;;;;6105087;23;20014;-76
2022/10/01 19:21:44;;;;;;;3.67;1.00;;;13.50;99.90;;;;;;6083180;23;20181;-78
2022/10/01 19:24:29;;;;;;;4.38;1.15;;;13.40;99.90;;;;;;6107107;23;20034;-77
2022/10/01 19:27:12;;;;;;;3.22;1.08;;;13.30;99.90;;;;;;6106609;23;20066;-80
2022/10/01 19:29:48;;;;;;;3.47;1.27;;;13.40;99.90;;;;;;6084218;23;20100;-78
2022/10/01 19:32:21;;;;;;;3.30;1.20;;;13.30;99.90;;;;;;6049769;23;20223;-79
2022/10/01 19:35:15;;;;;;;2.13;1.02;;;13.30;99.90;;;;;;6025437;23;20074;-79
2022/10/01 19:38:12;;;;;;;5.50;1.33;;;13.30;99.90;;;;;;6049876;23;20007;-78
2022/10/01 19:40:59;;;;;;;3.80;0.98;;;13.40;99.90;;;;;;6021968;23;20007;-81
2022/10/01 19:47:32;;;;;;;5.35;1.08;;;13.60;99.90;;;;;;6102600;23;20264;-77
2022/10/01 19:50:05;;;;;;;4.50;1.08;;;13.70;99.90;;;;;;6106343;23;20003;-80
2022/10/01 19:52:37;;;;;;;4.03;1.05;;;13.70;99.90;;;;;;6107078;23;20271;-79
2022/10/01 19:55:12;;;;;;;6.82;1.33;;;13.70;99.90;;;;;;6105912;23;20006;-77
2022/10/01 19:57:41;;;;;;;6.93;1.38;;;13.80;99.90;;;;;;6105621;23;20072;-78
2022/10/01 20:00:16;;;;;;;5.53;1.10;;;13.80;99.90;;;;;;6104600;23;20323;-79
2022/10/01 20:03:09;;;;;;;5.47;1.27;;;13.80;99.90;;;;;;6081431;23;20300;-79
2022/10/01 20:05:57;;;;;;;5.53;1.20;;;13.80;99.90;;;;;;6105667;23;20009;-79
2022/10/01 20:09:19;;;;;;;5.15;1.27;;;13.90;99.90;;;;;;6105386;23;20061;-82
2022/10/01 20:11:50;;;;;;;7.68;1.65;;;13.90;99.90;;;;;;5995161;23;20022;-79
2022/10/01 20:17:33;;;;;;;4.70;1.42;;;13.90;99.90;;;;;;6132030;23;20009;-79
2022/10/01 20:20:18;;;;;;;5.10;1.10;;;13.80;99.90;;;;;;6161512;23;20006;-80
2022/10/01 20:23:26;;;;;;;5.93;1.40;;;13.80;99.90;;;;;;6210829;23;20005;-79
2022/10/01 20:26:18;;;;;;;4.55;1.25;;;13.80;99.90;;;;;;6192739;23;20208;-80
2022/10/01 20:29:23;;;;;;;5.00;1.40;;;13.80;99.90;;;;;;6192527;23;20005;-81
2022/10/01 20:32:25;;;;;;;4.30;1.15;;;13.70;99.90;;;;;;6168139;23;20016;-80
2022/10/01 20:35:06;;;;;;;5.63;1.27;;;13.70;99.90;;;;;;6143373;23;20075;-80
2022/10/01 20:37:56;;;;;;;5.32;1.10;;;13.70;99.90;;;;;;6168289;23;20016;-79
2022/10/01 20:40:39;;;;;;;4.13;1.20;;;13.70;99.90;;;;;;6167695;23;20032;-79
2022/10/01 20:43:16;;;;;;;3.50;1.05;;;13.70;99.90;;;;;;6167419;23;20060;-80
2022/10/01 20:45:46;;;;;;;4.90;1.27;;;13.70;99.90;;;;;;6167141;23;20005;-78
2022/10/01 20:48:35;;;;;;;3.92;1.42;;;13.70;99.90;;;;;;6191954;23;20024;-79
2022/10/01 20:51:11;;;;;;;5.60;1.48;;;13.80;99.90;;;;;;6192719;23;20039;-81
2022/10/01 20:53:49;;;;;;;4.63;1.20;;;13.80;99.90;;;;;;6144008;23;20076;-78
2022/10/01 20:56:38;;;;;;;3.25;1.02;;;13.80;99.90;;;;;;6193837;23;20116;-77
2022/10/01 20:59:47;;;;;;;3.85;1.27;;;13.90;99.90;;;;;;6172235;23;20009;-78
2022/10/01 21:02:33;;;;;;;5.97;1.20;;;13.90;99.90;;;;;;6208966;23;20009;-78
2022/10/01 21:05:17;;;;;;;3.67;1.10;;;13.90;99.90;;;;;;6230896;23;20000;-77
2022/10/01 21:07:49;;;;;;;6.95;1.20;;;14.00;99.90;;;;;;6228480;23;20001;-78
2022/10/01 21:10:32;;;;;;;5.53;1.33;;;13.90;99.90;;;;;;6262918;22;20061;-79
2022/10/01 21:13:48;;;;;;;5.05;1.10;;;13.90;99.90;;;;;;6286617;22;20282;-78
2022/10/01 21:16:55;;;;;;;3.88;1.00;;;13.90;99.90;;;;;;6132699;23;20002;-78
2022/10/01 21:19:57;;;;;;;5.68;1.10;;;13.90;99.90;;;;;;6087701;23;20208;-80
2022/10/01 21:22:36;;;;;;;6.72;1.20;;;13.90;99.90;;;;;;6132403;23;20053;-80
2022/10/01 21:25:46;;;;;;;3.72;1.23;;;13.90;99.90;;;;;;6107955;23;20045;-78